Anmare — V2EO3 — position and weather

sailwx.info

Track history (hours):
 
Tides and Currents Weather Stations Pressure Air Temp Water Temp Dewpoint Dewpoint Depression Visibility Wind Speed Wind Dir Waves Ship Positions

Anmare

Last reported at 2018-Jun-07 10:59 UTC. Time now 2018-Jun-24 18:50 UTC.
Position N 49°58' W 004°24'.
Warning: this ship's position is 17 days out of date.

Length 88 m; draft 4.5 m.

Type: Ship (hazmat cat D). MMSI: 305493000.

Date/timePositionNaut miles runAvg speedWind from/ knotsBaromVisibWave heightAir tempDewpointWater temp
2018-Jun-07 10:59N 49°58' W 004°24'510.7
2018-Jun-07 10:30N 49°59' W 004°16'810.8
2018-Jun-07 09:43N 50°01' W 004°04'411.1
2018-Jun-07 09:19N 50°02' W 003°57'911.4
2018-Jun-07 08:31N 50°04' W 003°43'011.7
2018-Jun-07 08:30N 50°04' W 003°43'612.0
2018-Jun-07 08:00N 50°05' W 003°34'612.0
2018-Jun-07 07:30N 50°06' W 003°24'612.1
2018-Jun-07 07:00N 50°08' W 003°15'612.1
2018-Jun-07 06:30N 50°09' W 003°06'612.2
2018-Jun-07 06:00N 50°11' W 002°57'612.1
2018-Jun-07 05:30N 50°12' W 002°47'711.7
2018-Jun-07 04:54N 50°13' W 002°37'611.4
2018-Jun-07 04:25N 50°14' W 002°28'511.0
2018-Jun-07 04:00N 50°15' W 002°21'2210.0
2018-Jun-07 01:49N 50°19' W 001°47'4510.4
2018-Jun-06 21:33N 50°27' W 000°39'012.5
2018-Jun-06 21:30N 50°27' W 000°38'712.4
2018-Jun-06 20:55N 50°29' W 000°27'712.4
2018-Jun-06 20:20N 50°30' W 000°16'412.3
2018-Jun-06 20:00N 50°31' W 000°09'612.3
2018-Jun-06 19:30N 50°33' W 000°00'812.1
2018-Jun-06 18:48N 50°35' E 000°13'412.1
2018-Jun-06 18:30N 50°36' E 000°18'612.0
2018-Jun-06 18:00N 50°38' E 000°27'611.4
2018-Jun-06 17:30N 50°40' E 000°36'611.3
2018-Jun-06 17:00N 50°43' E 000°43'611.2
2018-Jun-06 16:30N 50°46' E 000°50'611.0
2018-Jun-06 16:00N 50°49' E 000°58'611.1
2018-Jun-06 15:29N 50°53' E 001°05'1411.4
2018-Jun-06 14:18N 51°01' E 001°21'412.5
2018-Jun-06 14:00N 51°04' E 001°26'713.5
2018-Jun-06 13:31N 51°08' E 001°34'713.6
2018-Jun-06 13:00N 51°12' E 001°42'713.3
2018-Jun-06 12:31N 51°18' E 001°48'713.5
2018-Jun-06 12:00N 51°24' E 001°52'612.6
2018-Jun-06 11:30N 51°30' E 001°57'612.3
2018-Jun-06 10:59N 51°34' E 002°04'612.0
2018-Jun-06 10:30N 51°38' E 002°11'611.4
2018-Jun-06 10:00N 51°43' E 002°17'611.1
2018-Jun-06 09:29N 51°47' E 002°23'610.7
2018-Jun-06 08:54N 51°52' E 002°30'410.4
2018-Jun-06 08:28N 51°55' E 002°35'510.2
2018-Jun-06 08:00N 51°58' E 002°40'510.1
2018-Jun-06 07:30N 52°02' E 002°46'510.0
2018-Jun-06 07:00N 52°06' E 002°51'510.1
2018-Jun-06 06:30N 52°10' E 002°56'510.2
2018-Jun-06 06:00N 52°14' E 003°01'510.4
2018-Jun-06 05:30N 52°18' E 003°06'610.8
2018-Jun-06 04:58N 52°22' E 003°12'811.2
2018-Jun-06 04:18N 52°28' E 003°20'411.6
2018-Jun-06 03:56N 52°32' E 003°24'611.8
2018-Jun-06 03:26N 52°37' E 003°30'612.0
2018-Jun-06 02:56N 52°41' E 003°36'512.1
2018-Jun-06 02:29N 52°45' E 003°41'612.2
2018-Jun-06 02:00N 52°50' E 003°47'712.1
2018-Jun-06 01:25N 52°56' E 003°55'512.0
2018-Jun-06 01:00N 52°59' E 004°00'611.7
2018-Jun-06 00:30N 53°03' E 004°08'1111.1
2018-Jun-05 23:32N 53°10' E 004°22'110.4
2018-Jun-05 23:25N 53°11' E 004°23'1810.0
2018-Jun-05 21:37N 53°27' E 004°34'110.1
2018-Jun-05 21:30N 53°28' E 004°35'810.3
2018-Jun-05 20:42N 53°36' E 004°39'20411.0
2018-Jun-05 02:05N 56°34' E 007°34'311.4
2018-Jun-05 01:48N 56°37' E 007°37'311.3
2018-Jun-05 01:30N 56°40' E 007°40'711.2
2018-Jun-05 00:51N 56°46' E 007°47'1111.1
2018-Jun-04 23:52N 56°56' E 007°57'1710.6
2018-Jun-04 22:13N 57°10' E 008°15'510.3
2018-Jun-04 21:44N 57°14' E 008°22'610.7
2018-Jun-04 21:12N 57°17' E 008°29'211.0
2018-Jun-04 21:00N 57°19' E 008°32'510.7
2018-Jun-04 20:30N 57°23' E 008°39'510.7
2018-Jun-04 20:00N 57°26' E 008°47'7110.1
2018-Jun-04 12:58N 57°45' E 010°55'510.6
2018-Jun-04 12:28N 57°41' E 011°02'510.3
2018-Jun-04 12:00N 57°38' E 011°09'510.8
2018-Jun-04 11:30N 57°34' E 011°16'611.0
2018-Jun-04 11:00N 57°30' E 011°24'611.0
2018-Jun-04 10:30N 57°26' E 011°30'510.7
2018-Jun-04 10:00N 57°22' E 011°37'1410.1
2018-Jun-04 08:37N 57°12' E 011°56'10 0.4
2018-Jun-03 07:28N 57°06' E 012°09'0 0.0
2018-Jun-03 06:58N 57°06' E 012°09'0 0.0
2018-Jun-03 05:31N 57°06' E 012°09'0 0.0
2018-Jun-03 05:28N 57°06' E 012°09'0 0.0
2018-Jun-03 04:37N 57°06' E 012°09'0 0.0
2018-Jun-03 04:22N 57°06' E 012°09'0 0.0
2018-Jun-03 03:55N 57°06' E 012°09'0 0.0
2018-Jun-03 03:28N 57°06' E 012°08'0 0.0
2018-Jun-03 02:55N 57°06' E 012°09'0 0.0
2018-Jun-03 02:28N 57°06' E 012°09'0 0.0
2018-Jun-03 01:58N 57°06' E 012°09'0 0.0
2018-Jun-03 01:28N 57°06' E 012°09'0 0.0
2018-Jun-03 00:31N 57°06' E 012°09'0 0.0
2018-Jun-03 00:28N 57°06' E 012°09'0 0.0
2018-Jun-02 23:49N 57°06' E 012°09'0 0.1
2018-Jun-02 23:28N 57°06' E 012°08'5010.2
2018-Jun-02 18:32N 56°16' E 012°25'010.6
2018-Jun-02 18:30N 56°16' E 012°25'510.9
2018-Jun-02 18:00N 56°11' E 012°29'510.6
2018-Jun-02 17:29N 56°06' E 012°34'510.1
2018-Jun-02 17:00N 56°03' E 012°40'5 9.1
2018-Jun-02 16:30N 55°58' E 012°42'5 9.8
2018-Jun-02 16:00N 55°53' E 012°44'510.2
2018-Jun-02 15:30N 55°48' E 012°43'510.9
2018-Jun-02 15:00N 55°43' E 012°41'510.1
2018-Jun-02 14:30N 55°38' E 012°42'5 9.2
2018-Jun-02 14:00N 55°33' E 012°42'510.4
2018-Jun-02 13:30N 55°28' E 012°42'510.8
2018-Jun-02 13:00N 55°23' E 012°41'510.3
2018-Jun-02 12:30N 55°18' E 012°43'611.1
2018-Jun-02 11:59N 55°16' E 012°52'610.8
2018-Jun-02 11:28N 55°12' E 013°00'1210.7
2018-Jun-02 10:20N 55°05' E 013°17'410.1
2018-Jun-02 09:54N 55°03' E 013°24'13 9.8
2018-Jun-02 08:36N 54°55' E 013°41'1 9.8
2018-Jun-02 08:30N 54°54' E 013°42'810.1
2018-Jun-02 07:45N 54°49' E 013°52'310.2
2018-Jun-02 07:27N 54°47' E 013°56'510.0
2018-Jun-02 06:58N 54°45' E 014°03'5 9.9
2018-Jun-02 06:30N 54°42' E 014°09'8 9.7
2018-Jun-02 05:39N 54°38' E 014°22'1110.0
2018-Jun-02 04:33N 54°39' E 014°41'310.2
2018-Jun-02 04:18N 54°39' E 014°45'3510.3
2018-Jun-02 00:55N 54°45' E 015°45'1410.3
2018-Jun-01 23:33N 54°47' E 016°09'5310.1
2018-Jun-01 18:19N 54°55' E 017°40'310.2
2018-Jun-01 18:00N 54°55' E 017°46'510.3
2018-Jun-01 17:30N 54°55' E 017°55'510.6
2018-Jun-01 17:00N 54°55' E 018°04'510.4
2018-Jun-01 16:30N 54°56' E 018°13'510.5
2018-Jun-01 16:00N 54°56' E 018°22'510.8
2018-Jun-01 15:30N 54°55' E 018°31'510.3
2018-Jun-01 15:00N 54°54' E 018°40'510.7
2018-Jun-01 14:30N 54°51' E 018°47'510.5
2018-Jun-01 14:00N 54°48' E 018°54'5 9.9
2018-Jun-01 13:30N 54°44' E 018°60'510.1
2018-Jun-01 13:00N 54°39' E 018°57'510.0
2018-Jun-01 12:30N 54°35' E 018°53'510.2
2018-Jun-01 12:00N 54°31' E 018°47'510.2
2018-Jun-01 11:29N 54°27' E 018°41'3 5.4
2018-Jun-01 11:00N 54°25' E 018°40'2 3.0
2018-Jun-01 10:29N 54°23' E 018°40'0 0.0
2018-Jun-01 09:59N 54°23' E 018°40'0 0.0
2018-Jun-01 09:29N 54°23' E 018°40'0 0.0
2018-Jun-01 08:59N 54°23' E 018°40'0 0.0
2018-Jun-01 08:29N 54°23' E 018°40'0 0.0
2018-Jun-01 07:56N 54°23' E 018°40'0 0.0
2018-Jun-01 07:29N 54°23' E 018°40'0 0.0
2018-Jun-01 06:59N 54°23' E 018°40'0 0.0
2018-Jun-01 06:29N 54°23' E 018°40'0 0.0
2018-Jun-01 05:59N 54°23' E 018°40'0 0.0
2018-Jun-01 05:29N 54°23' E 018°40'0 0.0
2018-Jun-01 04:59N 54°23' E 018°40'0 0.0
2018-Jun-01 04:29N 54°23' E 018°40'0 0.0
2018-Jun-01 03:56N 54°23' E 018°40'0 0.0
2018-Jun-01 03:29N 54°23' E 018°40'0 0.1
2018-Jun-01 03:00N 54°23' E 018°40'1 1.2
2018-Jun-01 02:29N 54°23' E 018°39'0 0.0
2018-Jun-01 01:59N 54°23' E 018°39'0 0.0
2018-Jun-01 01:26N 54°23' E 018°39'0 0.0
2018-Jun-01 00:59N 54°23' E 018°39'0 0.0
2018-Jun-01 00:29N 54°23' E 018°39'0 0.0
2018-May-31 23:59N 54°23' E 018°39'0 0.0
2018-May-31 23:29N 54°23' E 018°39'0 0.0
2018-May-31 22:59N 54°23' E 018°39'0 0.0
2018-May-31 22:29N 54°23' E 018°39'0 0.0
2018-May-31 21:59N 54°23' E 018°39'0 0.0
2018-May-31 21:26N 54°23' E 018°39'0 0.0
2018-May-31 20:59N 54°23' E 018°39'0 0.0
2018-May-31 20:23N 54°23' E 018°39'0 0.0
2018-May-31 19:56N 54°23' E 018°39'0 0.0
2018-May-31 19:29N 54°23' E 018°39'0 0.0
2018-May-31 18:59N 54°23' E 018°39'0 0.0
2018-May-31 18:29N 54°23' E 018°39'0 0.0
2018-May-31 17:59N 54°23' E 018°39'0 0.0
2018-May-31 17:29N 54°23' E 018°39'0 0.0
2018-May-31 16:59N 54°23' E 018°39'0 0.0
2018-May-31 16:29N 54°23' E 018°39'0 0.0
2018-May-31 15:59N 54°23' E 018°39'0 0.0
2018-May-31 15:29N 54°23' E 018°39'0 0.0
2018-May-31 14:59N 54°23' E 018°39'0 0.0
2018-May-31 14:29N 54°23' E 018°39'0 0.0
2018-May-31 13:59N 54°23' E 018°39'0 0.0
2018-May-31 13:29N 54°23' E 018°39'0 0.0
2018-May-31 12:56N 54°23' E 018°39'0 0.0
2018-May-31 12:29N 54°23' E 018°39'0 0.0
2018-May-31 11:59N 54°23' E 018°39'0 0.0
2018-May-31 11:26N 54°23' E 018°39'0 0.0
2018-May-31 10:59N 54°23' E 018°39'0 0.0
2018-May-31 10:29N 54°23' E 018°39'0 0.0
2018-May-31 09:59N 54°23' E 018°39'0 0.0
2018-May-31 09:29N 54°23' E 018°39'0 0.0
2018-May-31 08:56N 54°23' E 018°39'0 0.0
2018-May-31 08:26N 54°23' E 018°39'0 0.0
2018-May-31 07:59N 54°23' E 018°39'0 0.0
2018-May-31 07:29N 54°23' E 018°39'0 0.0
2018-May-31 06:59N 54°23' E 018°39'0 0.0
2018-May-31 06:29N 54°23' E 018°39'0 0.0
2018-May-31 05:56N 54°23' E 018°39'0 0.0
2018-May-31 05:26N 54°23' E 018°39'0 0.0
2018-May-31 04:59N 54°23' E 018°39'0 0.0
2018-May-31 04:29N 54°23' E 018°39'0 0.0
2018-May-31 03:59N 54°23' E 018°39'0 0.0
2018-May-31 03:29N 54°23' E 018°39'0 0.0
2018-May-31 02:53N 54°23' E 018°39'0 0.0
2018-May-31 02:29N 54°23' E 018°39'0 0.0
2018-May-31 01:59N 54°23' E 018°39'0 0.0
2018-May-31 01:29N 54°23' E 018°39'0 0.0
2018-May-31 00:59N 54°23' E 018°39'0 0.0
2018-May-31 00:26N 54°23' E 018°39'0 0.0
2018-May-30 23:59N 54°23' E 018°39'0 0.0
2018-May-30 23:29N 54°23' E 018°39'0 0.0
2018-May-30 22:59N 54°23' E 018°39'0 0.0
2018-May-30 22:23N 54°23' E 018°39'0 0.0
2018-May-30 21:59N 54°23' E 018°39'0 0.0
2018-May-30 21:29N 54°23' E 018°39'0 0.0
2018-May-30 20:59N 54°23' E 018°39'0 0.0
2018-May-30 20:26N 54°23' E 018°39'0 0.0
2018-May-30 19:59N 54°23' E 018°39'0 0.0
2018-May-30 19:29N 54°23' E 018°39'0 0.0
2018-May-30 18:59N 54°23' E 018°39'0 0.0
2018-May-30 18:26N 54°23' E 018°39'0 0.0
2018-May-30 17:59N 54°23' E 018°39'0 0.0
2018-May-30 17:29N 54°23' E 018°39'0 0.0
2018-May-30 16:59N 54°23' E 018°39'0 0.0
2018-May-30 16:30N 54°23' E 018°39'1 2.2
2018-May-30 16:00N 54°24' E 018°41'3 5.4
2018-May-30 15:30N 54°26' E 018°39'1 2.2
2018-May-30 15:00N 54°27' E 018°40'3 5.1
2018-May-30 14:30N 54°29' E 018°43'4 8.6
2018-May-30 13:59N 54°32' E 018°48'611.2
2018-May-30 13:30N 54°37' E 018°54'611.5
2018-May-30 13:00N 54°42' E 018°58'510.4
2018-May-30 12:30N 54°47' E 018°56'611.9
2018-May-30 11:59N 54°50' E 018°47'611.3
2018-May-30 11:30N 54°53' E 018°39'511.3
2018-May-30 11:00N 54°54' E 018°29'611.4
2018-May-30 10:30N 54°54' E 018°19'611.6
2018-May-30 10:00N 54°54' E 018°09'611.7
2018-May-30 09:30N 54°54' E 017°59'611.7
2018-May-30 09:00N 54°54' E 017°49'3111.5
2018-May-30 06:18N 54°49' E 016°56'411.7
2018-May-30 05:59N 54°48' E 016°49'3111.7
2018-May-30 03:21N 54°44' E 015°56'411.9
2018-May-30 02:59N 54°43' E 015°49'711.8
2018-May-30 02:25N 54°42' E 015°38'511.7
2018-May-30 02:00N 54°41' E 015°29'611.7
2018-May-30 01:29N 54°40' E 015°19'611.8
2018-May-30 01:00N 54°40' E 015°09'611.8
2018-May-30 00:29N 54°39' E 014°59'611.7
2018-May-30 00:00N 54°38' E 014°49'711.5
2018-May-29 23:26N 54°37' E 014°38'511.6
2018-May-29 23:00N 54°36' E 014°29'611.4
2018-May-29 22:30N 54°37' E 014°19'611.7
2018-May-29 22:00N 54°39' E 014°10'711.5
2018-May-29 21:22N 54°43' E 013°60'911.6
2018-May-29 20:36N 54°49' E 013°48'611.5
2018-May-29 20:07N 54°53' E 013°41'2611.6
2018-May-29 17:51N 55°09' E 013°05'411.0
2018-May-29 17:30N 55°11' E 012°60'611.1
2018-May-29 16:59N 55°15' E 012°51'611.0
2018-May-29 16:25N 55°17' E 012°41'7 9.5
2018-May-29 15:40N 55°24' E 012°39'311.3
2018-May-29 15:25N 55°27' E 012°40'511.3
2018-May-29 14:57N 55°32' E 012°42'511.1
2018-May-29 14:30N 55°37' E 012°42'611.2
2018-May-29 14:00N 55°42' E 012°41'611.2
2018-May-29 13:30N 55°48' E 012°40'611.1
2018-May-29 13:00N 55°54' E 012°39'611.3
2018-May-29 12:30N 55°59' E 012°37'5 9.3
2018-May-29 12:00N 56°04' E 012°37'81 3.7
2018-May-28 14:00N 57°19' E 011°43'4 7.3
2018-May-28 13:29N 57°21' E 011°38'5 7.7
2018-May-28 12:50N 57°25' E 011°31'3 8.5
2018-May-28 12:30N 57°27' E 011°27'4 8.6
2018-May-28 12:00N 57°29' E 011°21'4 8.6
2018-May-28 11:30N 57°32' E 011°15'  
Track history (hours):
 
Tides and Currents Weather Stations Pressure Air Temp Water Temp Dewpoint Dewpoint Depression Visibility Wind Speed Wind Dir Waves Ship Positions

Anmare

Last reported at 2018-Jun-07 10:59 UTC. Time now 2018-Jun-24 18:50 UTC.
Position N 49°58' W 004°24'.
Warning: this ship's position is 17 days out of date.

Length 88 m; draft 4.5 m.

Type: Ship (hazmat cat D). MMSI: 305493000.

Date/timePositionNaut miles runAvg speedWind from/ knotsBaromVisibWave heightAir tempDewpointWater temp
2018-Jun-07 10:59N 49°58' W 004°24'510.7
2018-Jun-07 10:30N 49°59' W 004°16'810.8
2018-Jun-07 09:43N 50°01' W 004°04'411.1
2018-Jun-07 09:19N 50°02' W 003°57'911.4
2018-Jun-07 08:31N 50°04' W 003°43'011.7
2018-Jun-07 08:30N 50°04' W 003°43'612.0
2018-Jun-07 08:00N 50°05' W 003°34'612.0
2018-Jun-07 07:30N 50°06' W 003°24'612.1
2018-Jun-07 07:00N 50°08' W 003°15'612.1
2018-Jun-07 06:30N 50°09' W 003°06'612.2
2018-Jun-07 06:00N 50°11' W 002°57'612.1
2018-Jun-07 05:30N 50°12' W 002°47'711.7
2018-Jun-07 04:54N 50°13' W 002°37'611.4
2018-Jun-07 04:25N 50°14' W 002°28'511.0
2018-Jun-07 04:00N 50°15' W 002°21'2210.0
2018-Jun-07 01:49N 50°19' W 001°47'4510.4
2018-Jun-06 21:33N 50°27' W 000°39'012.5
2018-Jun-06 21:30N 50°27' W 000°38'712.4
2018-Jun-06 20:55N 50°29' W 000°27'712.4
2018-Jun-06 20:20N 50°30' W 000°16'412.3
2018-Jun-06 20:00N 50°31' W 000°09'612.3
2018-Jun-06 19:30N 50°33' W 000°00'812.1
2018-Jun-06 18:48N 50°35' E 000°13'412.1
2018-Jun-06 18:30N 50°36' E 000°18'612.0
2018-Jun-06 18:00N 50°38' E 000°27'611.4
2018-Jun-06 17:30N 50°40' E 000°36'611.3
2018-Jun-06 17:00N 50°43' E 000°43'611.2
2018-Jun-06 16:30N 50°46' E 000°50'611.0
2018-Jun-06 16:00N 50°49' E 000°58'611.1
2018-Jun-06 15:29N 50°53' E 001°05'1411.4
2018-Jun-06 14:18N 51°01' E 001°21'412.5
2018-Jun-06 14:00N 51°04' E 001°26'713.5
2018-Jun-06 13:31N 51°08' E 001°34'713.6
2018-Jun-06 13:00N 51°12' E 001°42'713.3
2018-Jun-06 12:31N 51°18' E 001°48'713.5
2018-Jun-06 12:00N 51°24' E 001°52'612.6
2018-Jun-06 11:30N 51°30' E 001°57'612.3
2018-Jun-06 10:59N 51°34' E 002°04'612.0
2018-Jun-06 10:30N 51°38' E 002°11'611.4
2018-Jun-06 10:00N 51°43' E 002°17'611.1
2018-Jun-06 09:29N 51°47' E 002°23'610.7
2018-Jun-06 08:54N 51°52' E 002°30'410.4
2018-Jun-06 08:28N 51°55' E 002°35'510.2
2018-Jun-06 08:00N 51°58' E 002°40'510.1
2018-Jun-06 07:30N 52°02' E 002°46'510.0
2018-Jun-06 07:00N 52°06' E 002°51'510.1
2018-Jun-06 06:30N 52°10' E 002°56'510.2
2018-Jun-06 06:00N 52°14' E 003°01'510.4
2018-Jun-06 05:30N 52°18' E 003°06'610.8
2018-Jun-06 04:58N 52°22' E 003°12'811.2
2018-Jun-06 04:18N 52°28' E 003°20'411.6
2018-Jun-06 03:56N 52°32' E 003°24'611.8
2018-Jun-06 03:26N 52°37' E 003°30'612.0
2018-Jun-06 02:56N 52°41' E 003°36'512.1
2018-Jun-06 02:29N 52°45' E 003°41'612.2
2018-Jun-06 02:00N 52°50' E 003°47'712.1
2018-Jun-06 01:25N 52°56' E 003°55'512.0
2018-Jun-06 01:00N 52°59' E 004°00'611.7
2018-Jun-06 00:30N 53°03' E 004°08'1111.1
2018-Jun-05 23:32N 53°10' E 004°22'110.4
2018-Jun-05 23:25N 53°11' E 004°23'1810.0
2018-Jun-05 21:37N 53°27' E 004°34'110.1
2018-Jun-05 21:30N 53°28' E 004°35'810.3
2018-Jun-05 20:42N 53°36' E 004°39'20411.0
2018-Jun-05 02:05N 56°34' E 007°34'311.4
2018-Jun-05 01:48N 56°37' E 007°37'311.3
2018-Jun-05 01:30N 56°40' E 007°40'711.2
2018-Jun-05 00:51N 56°46' E 007°47'1111.1
2018-Jun-04 23:52N 56°56' E 007°57'1710.6
2018-Jun-04 22:13N 57°10' E 008°15'510.3
2018-Jun-04 21:44N 57°14' E 008°22'610.7
2018-Jun-04 21:12N 57°17' E 008°29'211.0
2018-Jun-04 21:00N 57°19' E 008°32'510.7
2018-Jun-04 20:30N 57°23' E 008°39'510.7
2018-Jun-04 20:00N 57°26' E 008°47'7110.1
2018-Jun-04 12:58N 57°45' E 010°55'510.6
2018-Jun-04 12:28N 57°41' E 011°02'510.3
2018-Jun-04 12:00N 57°38' E 011°09'510.8
2018-Jun-04 11:30N 57°34' E 011°16'611.0
2018-Jun-04 11:00N 57°30' E 011°24'611.0
2018-Jun-04 10:30N 57°26' E 011°30'510.7
2018-Jun-04 10:00N 57°22' E 011°37'1410.1
2018-Jun-04 08:37N 57°12' E 011°56'10 0.4
2018-Jun-03 07:28N 57°06' E 012°09'0 0.0
2018-Jun-03 06:58N 57°06' E 012°09'0 0.0
2018-Jun-03 05:31N 57°06' E 012°09'0 0.0
2018-Jun-03 05:28N 57°06' E 012°09'0 0.0
2018-Jun-03 04:37N 57°06' E 012°09'0 0.0
2018-Jun-03 04:22N 57°06' E 012°09'0 0.0
2018-Jun-03 03:55N 57°06' E 012°09'0 0.0
2018-Jun-03 03:28N 57°06' E 012°08'0 0.0
2018-Jun-03 02:55N 57°06' E 012°09'0 0.0
2018-Jun-03 02:28N 57°06' E 012°09'0 0.0
2018-Jun-03 01:58N 57°06' E 012°09'0 0.0
2018-Jun-03 01:28N 57°06' E 012°09'0 0.0
2018-Jun-03 00:31N 57°06' E 012°09'0 0.0
2018-Jun-03 00:28N 57°06' E 012°09'0 0.0
2018-Jun-02 23:49N 57°06' E 012°09'0 0.1
2018-Jun-02 23:28N 57°06' E 012°08'5010.2
2018-Jun-02 18:32N 56°16' E 012°25'010.6
2018-Jun-02 18:30N 56°16' E 012°25'510.9
2018-Jun-02 18:00N 56°11' E 012°29'510.6
2018-Jun-02 17:29N 56°06' E 012°34'510.1
2018-Jun-02 17:00N 56°03' E 012°40'5 9.1
2018-Jun-02 16:30N 55°58' E 012°42'5 9.8
2018-Jun-02 16:00N 55°53' E 012°44'510.2
2018-Jun-02 15:30N 55°48' E 012°43'510.9
2018-Jun-02 15:00N 55°43' E 012°41'510.1
2018-Jun-02 14:30N 55°38' E 012°42'5 9.2
2018-Jun-02 14:00N 55°33' E 012°42'510.4
2018-Jun-02 13:30N 55°28' E 012°42'510.8
2018-Jun-02 13:00N 55°23' E 012°41'510.3
2018-Jun-02 12:30N 55°18' E 012°43'611.1
2018-Jun-02 11:59N 55°16' E 012°52'610.8
2018-Jun-02 11:28N 55°12' E 013°00'1210.7
2018-Jun-02 10:20N 55°05' E 013°17'410.1
2018-Jun-02 09:54N 55°03' E 013°24'13 9.8
2018-Jun-02 08:36N 54°55' E 013°41'1 9.8
2018-Jun-02 08:30N 54°54' E 013°42'810.1
2018-Jun-02 07:45N 54°49' E 013°52'310.2
2018-Jun-02 07:27N 54°47' E 013°56'510.0
2018-Jun-02 06:58N 54°45' E 014°03'5 9.9
2018-Jun-02 06:30N 54°42' E 014°09'8 9.7
2018-Jun-02 05:39N 54°38' E 014°22'1110.0
2018-Jun-02 04:33N 54°39' E 014°41'310.2
2018-Jun-02 04:18N 54°39' E 014°45'3510.3
2018-Jun-02 00:55N 54°45' E 015°45'1410.3
2018-Jun-01 23:33N 54°47' E 016°09'5310.1
2018-Jun-01 18:19N 54°55' E 017°40'310.2
2018-Jun-01 18:00N 54°55' E 017°46'510.3
2018-Jun-01 17:30N 54°55' E 017°55'510.6
2018-Jun-01 17:00N 54°55' E 018°04'510.4
2018-Jun-01 16:30N 54°56' E 018°13'510.5
2018-Jun-01 16:00N 54°56' E 018°22'510.8
2018-Jun-01 15:30N 54°55' E 018°31'510.3
2018-Jun-01 15:00N 54°54' E 018°40'510.7
2018-Jun-01 14:30N 54°51' E 018°47'510.5
2018-Jun-01 14:00N 54°48' E 018°54'5 9.9
2018-Jun-01 13:30N 54°44' E 018°60'510.1
2018-Jun-01 13:00N 54°39' E 018°57'510.0
2018-Jun-01 12:30N 54°35' E 018°53'510.2
2018-Jun-01 12:00N 54°31' E 018°47'510.2
2018-Jun-01 11:29N 54°27' E 018°41'3 5.4
2018-Jun-01 11:00N 54°25' E 018°40'2 3.0
2018-Jun-01 10:29N 54°23' E 018°40'0 0.0
2018-Jun-01 09:59N 54°23' E 018°40'0 0.0
2018-Jun-01 09:29N 54°23' E 018°40'0 0.0
2018-Jun-01 08:59N 54°23' E 018°40'0 0.0
2018-Jun-01 08:29N 54°23' E 018°40'0 0.0
2018-Jun-01 07:56N 54°23' E 018°40'0 0.0
2018-Jun-01 07:29N 54°23' E 018°40'0 0.0
2018-Jun-01 06:59N 54°23' E 018°40'0 0.0
2018-Jun-01 06:29N 54°23' E 018°40'0 0.0
2018-Jun-01 05:59N 54°23' E 018°40'0 0.0
2018-Jun-01 05:29N 54°23' E 018°40'0 0.0
2018-Jun-01 04:59N 54°23' E 018°40'0 0.0
2018-Jun-01 04:29N 54°23' E 018°40'0 0.0
2018-Jun-01 03:56N 54°23' E 018°40'0 0.0
2018-Jun-01 03:29N 54°23' E 018°40'0 0.1
2018-Jun-01 03:00N 54°23' E 018°40'1 1.2
2018-Jun-01 02:29N 54°23' E 018°39'0 0.0
2018-Jun-01 01:59N 54°23' E 018°39'0 0.0
2018-Jun-01 01:26N 54°23' E 018°39'0 0.0
2018-Jun-01 00:59N 54°23' E 018°39'0 0.0
2018-Jun-01 00:29N 54°23' E 018°39'0 0.0
2018-May-31 23:59N 54°23' E 018°39'0 0.0
2018-May-31 23:29N 54°23' E 018°39'0 0.0
2018-May-31 22:59N 54°23' E 018°39'0 0.0
2018-May-31 22:29N 54°23' E 018°39'0 0.0
2018-May-31 21:59N 54°23' E 018°39'0 0.0
2018-May-31 21:26N 54°23' E 018°39'0 0.0
2018-May-31 20:59N 54°23' E 018°39'0 0.0
2018-May-31 20:23N 54°23' E 018°39'0 0.0
2018-May-31 19:56N 54°23' E 018°39'0 0.0
2018-May-31 19:29N 54°23' E 018°39'0 0.0
2018-May-31 18:59N 54°23' E 018°39'0 0.0
2018-May-31 18:29N 54°23' E 018°39'0 0.0
2018-May-31 17:59N 54°23' E 018°39'0 0.0
2018-May-31 17:29N 54°23' E 018°39'0 0.0
2018-May-31 16:59N 54°23' E 018°39'0 0.0
2018-May-31 16:29N 54°23' E 018°39'0 0.0
2018-May-31 15:59N 54°23' E 018°39'0 0.0
2018-May-31 15:29N 54°23' E 018°39'0 0.0
2018-May-31 14:59N 54°23' E 018°39'0 0.0
2018-May-31 14:29N 54°23' E 018°39'0 0.0
2018-May-31 13:59N 54°23' E 018°39'0 0.0
2018-May-31 13:29N 54°23' E 018°39'0 0.0
2018-May-31 12:56N 54°23' E 018°39'0 0.0
2018-May-31 12:29N 54°23' E 018°39'0 0.0
2018-May-31 11:59N 54°23' E 018°39'0 0.0
2018-May-31 11:26N 54°23' E 018°39'0 0.0
2018-May-31 10:59N 54°23' E 018°39'0 0.0
2018-May-31 10:29N 54°23' E 018°39'0 0.0
2018-May-31 09:59N 54°23' E 018°39'0 0.0
2018-May-31 09:29N 54°23' E 018°39'0 0.0
2018-May-31 08:56N 54°23' E 018°39'0 0.0
2018-May-31 08:26N 54°23' E 018°39'0 0.0
2018-May-31 07:59N 54°23' E 018°39'0 0.0
2018-May-31 07:29N 54°23' E 018°39'0 0.0
2018-May-31 06:59N 54°23' E 018°39'0 0.0
2018-May-31 06:29N 54°23' E 018°39'0 0.0
2018-May-31 05:56N 54°23' E 018°39'0 0.0
2018-May-31 05:26N 54°23' E 018°39'0 0.0
2018-May-31 04:59N 54°23' E 018°39'0 0.0
2018-May-31 04:29N 54°23' E 018°39'0 0.0
2018-May-31 03:59N 54°23' E 018°39'0 0.0
2018-May-31 03:29N 54°23' E 018°39'0 0.0
2018-May-31 02:53N 54°23' E 018°39'0 0.0
2018-May-31 02:29N 54°23' E 018°39'0 0.0
2018-May-31 01:59N 54°23' E 018°39'0 0.0
2018-May-31 01:29N 54°23' E 018°39'0 0.0
2018-May-31 00:59N 54°23' E 018°39'0 0.0
2018-May-31 00:26N 54°23' E 018°39'0 0.0
2018-May-30 23:59N 54°23' E 018°39'0 0.0
2018-May-30 23:29N 54°23' E 018°39'0 0.0
2018-May-30 22:59N 54°23' E 018°39'0 0.0
2018-May-30 22:23N 54°23' E 018°39'0 0.0
2018-May-30 21:59N 54°23' E 018°39'0 0.0
2018-May-30 21:29N 54°23' E 018°39'0 0.0
2018-May-30 20:59N 54°23' E 018°39'0 0.0
2018-May-30 20:26N 54°23' E 018°39'0 0.0
2018-May-30 19:59N 54°23' E 018°39'0 0.0
2018-May-30 19:29N 54°23' E 018°39'0 0.0
2018-May-30 18:59N 54°23' E 018°39'0 0.0
2018-May-30 18:26N 54°23' E 018°39'0 0.0
2018-May-30 17:59N 54°23' E 018°39'0 0.0
2018-May-30 17:29N 54°23' E 018°39'0 0.0
2018-May-30 16:59N 54°23' E 018°39'0 0.0
2018-May-30 16:30N 54°23' E 018°39'1 2.2
2018-May-30 16:00N 54°24' E 018°41'3 5.4
2018-May-30 15:30N 54°26' E 018°39'1 2.2
2018-May-30 15:00N 54°27' E 018°40'3 5.1
2018-May-30 14:30N 54°29' E 018°43'4 8.6
2018-May-30 13:59N 54°32' E 018°48'611.2
2018-May-30 13:30N 54°37' E 018°54'611.5
2018-May-30 13:00N 54°42' E 018°58'510.4
2018-May-30 12:30N 54°47' E 018°56'611.9
2018-May-30 11:59N 54°50' E 018°47'611.3
2018-May-30 11:30N 54°53' E 018°39'511.3
2018-May-30 11:00N 54°54' E 018°29'611.4
2018-May-30 10:30N 54°54' E 018°19'611.6
2018-May-30 10:00N 54°54' E 018°09'611.7
2018-May-30 09:30N 54°54' E 017°59'611.7
2018-May-30 09:00N 54°54' E 017°49'3111.5
2018-May-30 06:18N 54°49' E 016°56'411.7
2018-May-30 05:59N 54°48' E 016°49'3111.7
2018-May-30 03:21N 54°44' E 015°56'411.9
2018-May-30 02:59N 54°43' E 015°49'711.8
2018-May-30 02:25N 54°42' E 015°38'511.7
2018-May-30 02:00N 54°41' E 015°29'611.7
2018-May-30 01:29N 54°40' E 015°19'611.8
2018-May-30 01:00N 54°40' E 015°09'611.8
2018-May-30 00:29N 54°39' E 014°59'611.7
2018-May-30 00:00N 54°38' E 014°49'711.5
2018-May-29 23:26N 54°37' E 014°38'511.6
2018-May-29 23:00N 54°36' E 014°29'611.4
2018-May-29 22:30N 54°37' E 014°19'611.7
2018-May-29 22:00N 54°39' E 014°10'711.5
2018-May-29 21:22N 54°43' E 013°60'911.6
2018-May-29 20:36N 54°49' E 013°48'611.5
2018-May-29 20:07N 54°53' E 013°41'2611.6
2018-May-29 17:51N 55°09' E 013°05'411.0
2018-May-29 17:30N 55°11' E 012°60'611.1
2018-May-29 16:59N 55°15' E 012°51'611.0
2018-May-29 16:25N 55°17' E 012°41'7 9.5
2018-May-29 15:40N 55°24' E 012°39'311.3
2018-May-29 15:25N 55°27' E 012°40'511.3
2018-May-29 14:57N 55°32' E 012°42'511.1
2018-May-29 14:30N 55°37' E 012°42'611.2
2018-May-29 14:00N 55°42' E 012°41'611.2
2018-May-29 13:30N 55°48' E 012°40'611.1
2018-May-29 13:00N 55°54' E 012°39'611.3
2018-May-29 12:30N 55°59' E 012°37'5 9.3
2018-May-29 12:00N 56°04' E 012°37'81 3.7
2018-May-28 14:00N 57°19' E 011°43'4 7.3
2018-May-28 13:29N 57°21' E 011°38'5 7.7
2018-May-28 12:50N 57°25' E 011°31'3 8.5
2018-May-28 12:30N 57°27' E 011°27'4 8.6
2018-May-28 12:00N 57°29' E 011°21'4 8.6
2018-May-28 11:30N 57°32' E 011°15'  

Dump ship's entire track history